Time,TemperatureF,DewpointF,PressureIn,WindDirection,WindDirectionDegrees,WindSpeedMPH,WindSpeedGustMPH,Humidity,HourlyPrecipIn,Conditions,Clouds,dailyrainin,SoftwareType,DateUTC
2013-06-29 00:00:00,65.1,46.6,29.85,SSW,202,0.0,0.0,51,0.00,,,0.00,VWS V14.01,2013-06-29 07:00:00,
2013-06-29 00:05:00,65.1,46.6,29.85,SSW,202,0.0,0.0,51,0.00,,,0.00,VWS V14.01,2013-06-29 07:05:00,
2013-06-29 00:10:00,65.3,47.8,29.85,ENE,68,2.7,2.7,53,0.00,,,0.00,VWS V14.01,2013-06-29 07:10:00,
2013-06-29 00:15:00,65.3,47.8,29.85,ENE,68,0.0,0.0,53,0.00,,,0.00,VWS V14.01,2013-06-29 07:15:00,
2013-06-29 00:21:00,65.3,48.2,29.85,NNW,338,0.0,2.7,54,0.00,,,0.00,VWS V14.01,2013-06-29 07:21:00,
2013-06-29 00:26:00,65.1,48.1,29.85,NE,45,0.0,0.0,54,0.00,,,0.00,VWS V14.01,2013-06-29 07:26:00,
2013-06-29 00:31:00,65.3,48.7,29.85,ESE,112,0.0,0.0,55,0.00,,,0.00,VWS V14.01,2013-06-29 07:31:00,
2013-06-29 00:36:00,64.9,47.9,29.85,ESE,112,0.0,0.0,54,0.00,,,0.00,VWS V14.01,2013-06-29 07:36:00,
2013-06-29 00:41:00,64.9,48.4,29.85,ESE,112,0.0,0.0,55,0.00,,,0.00,VWS V14.01,2013-06-29 07:41:00,
2013-06-29 00:46:00,64.9,48.4,29.85,ESE,112,0.0,0.0,55,0.00,,,0.00,VWS V14.01,2013-06-29 07:46:00,
2013-06-29 00:51:00,65.1,49.0,29.85,North,0,0.0,0.0,56,0.00,,,0.00,VWS V14.01,2013-06-29 07:51:00,
2013-06-29 00:57:00,64.9,48.9,29.85,North,0,0.0,0.0,56,0.00,,,0.00,VWS V14.01,2013-06-29 07:57:00,
2013-06-29 01:02:00,64.8,48.7,29.85,North,0,0.0,0.0,56,0.00,,,0.00,VWS V14.01,2013-06-29 08:02:00,
2013-06-29 01:07:00,64.8,49.2,29.85,NE,45,0.0,0.0,57,0.00,,,0.00,VWS V14.01,2013-06-29 08:07:00,
2013-06-29 01:12:00,64.9,49.4,29.85,NE,45,0.0,0.0,57,0.00,,,0.00,VWS V14.01,2013-06-29 08:12:00,
2013-06-29 01:17:00,64.9,49.4,29.85,North,0,0.0,0.0,57,0.00,,,0.00,VWS V14.01,2013-06-29 08:17:00,
2013-06-29 01:22:00,64.8,49.7,29.82,North,0,0.0,0.0,58,0.00,,,0.00,VWS V14.01,2013-06-29 08:22:00,
2013-06-29 01:27:00,64.8,49.2,29.82,North,0,0.0,0.0,57,0.00,,,0.00,VWS V14.01,2013-06-29 08:27:00,
2013-06-29 01:32:00,64.8,49.2,29.82,East,90,0.0,0.0,57,0.00,,,0.00,VWS V14.01,2013-06-29 08:32:00,
2013-06-29 01:38:00,65.1,49.0,29.82,ESE,112,3.6,3.6,56,0.00,,,0.00,VWS V14.01,2013-06-29 08:38:00,
2013-06-29 01:43:00,65.3,48.7,29.82,ESE,112,0.0,0.0,55,0.00,,,0.00,VWS V14.01,2013-06-29 08:43:00,
2013-06-29 01:44:00,65.3,48.7,29.82,ESE,112,0.0,0.0,55,0.00,,,0.00,VWS V14.01,2013-06-29 08:44:00,
2013-06-29 01:49:00,65.1,48.6,29.82,North,0,0.0,0.0,55,0.00,,,0.00,VWS V14.01,2013-06-29 08:49:00,
2013-06-29 01:54:00,65.1,48.1,29.82,East,90,0.0,0.0,54,0.00,,,0.00,VWS V14.01,2013-06-29 08:54:00,
2013-06-29 01:59:00,64.8,47.8,29.82,East,90,0.0,0.0,54,0.00,,,0.00,VWS V14.01,2013-06-29 08:59:00,
2013-06-29 02:04:00,64.8,47.8,29.82,East,90,0.0,0.0,54,0.00,,,0.00,VWS V14.01,2013-06-29 09:04:00,
2013-06-29 02:10:00,64.8,47.2,29.82,East,90,0.0,0.0,53,0.00,,,0.00,VWS V14.01,2013-06-29 09:10:00,
2013-06-29 02:15:00,64.8,47.2,29.82,East,90,0.0,0.0,53,0.00,,,0.00,VWS V14.01,2013-06-29 09:15:00,
2013-06-29 02:20:00,64.9,46.9,29.82,North,0,0.0,0.0,52,0.00,,,0.00,VWS V14.01,2013-06-29 09:20:00,
2013-06-29 02:25:00,65.1,46.6,29.82,ESE,112,0.0,0.0,51,0.00,,,0.00,VWS V14.01,2013-06-29 09:25:00,
2013-06-29 02:30:00,65.1,46.6,29.82,SSW,202,0.0,0.0,51,0.00,,,0.00,VWS V14.01,2013-06-29 09:30:00,
2013-06-29 02:36:00,65.3,46.7,29.82,SSE,158,0.0,0.0,51,0.00,,,0.00,VWS V14.01,2013-06-29 09:36:00,
2013-06-29 02:41:00,65.5,46.4,29.82,ESE,112,0.0,0.0,50,0.00,,,0.00,VWS V14.01,2013-06-29 09:41:00,
2013-06-29 02:46:00,65.5,46.9,29.82,ESE,112,0.0,0.0,51,0.00,,,0.00,VWS V14.01,2013-06-29 09:46:00,
2013-06-29 02:51:00,65.8,46.7,29.82,SE,135,0.0,0.0,50,0.00,,,0.00,VWS V14.01,2013-06-29 09:51:00,
2013-06-29 02:56:00,65.7,46.5,29.82,ESE,112,0.0,0.0,50,0.00,,,0.00,VWS V14.01,2013-06-29 09:56:00,
2013-06-29 03:02:00,65.7,47.1,29.82,ESE,112,0.0,0.0,51,0.00,,,0.00,VWS V14.01,2013-06-29 10:02:00,
2013-06-29 03:07:00,65.5,46.9,29.82,ESE,112,0.0,0.0,51,0.00,,,0.00,VWS V14.01,2013-06-29 10:07:00,
2013-06-29 03:12:00,65.5,47.9,29.82,ESE,112,0.0,0.0,53,0.00,,,0.00,VWS V14.01,2013-06-29 10:12:00,
2013-06-29 03:17:00,65.3,47.8,29.82,East,90,0.0,0.0,53,0.00,,,0.00,VWS V14.01,2013-06-29 10:17:00,
2013-06-29 03:22:00,65.1,47.6,29.82,East,90,0.0,0.0,53,0.00,,,0.00,VWS V14.01,2013-06-29 10:22:00,
2013-06-29 03:27:00,65.3,48.2,29.82,East,90,0.0,0.0,54,0.00,,,0.00,VWS V14.01,2013-06-29 10:27:00,
2013-06-29 03:32:00,65.1,48.1,29.82,East,90,0.0,0.0,54,0.00,,,0.00,VWS V14.01,2013-06-29 10:32:00,
2013-06-29 03:37:00,65.1,48.1,29.82,NNE,22,0.0,0.0,54,0.00,,,0.00,VWS V14.01,2013-06-29 10:37:00,
2013-06-29 03:43:00,64.9,48.4,29.82,North,0,0.0,0.0,55,0.00,,,0.00,VWS V14.01,2013-06-29 10:43:00,
2013-06-29 03:48:00,64.8,48.2,29.82,NNE,22,0.0,0.0,55,0.00,,,0.00,VWS V14.01,2013-06-29 10:48:00,
2013-06-29 03:53:00,64.6,48.1,29.82,NNE,22,0.0,0.0,55,0.00,,,0.00,VWS V14.01,2013-06-29 10:53:00,
2013-06-29 03:58:00,64.4,47.9,29.82,NNE,22,0.0,0.0,55,0.00,,,0.00,VWS V14.01,2013-06-29 10:58:00,
2013-06-29 04:03:00,64.2,47.7,29.82,NNE,22,0.0,0.0,55,0.00,,,0.00,VWS V14.01,2013-06-29 11:03:00,
2013-06-29 04:08:00,64.2,48.2,29.82,North,0,0.0,0.0,56,0.00,,,0.00,VWS V14.01,2013-06-29 11:08:00,
2013-06-29 04:13:00,63.9,47.9,29.82,NNE,22,0.0,0.0,56,0.00,,,0.00,VWS V14.01,2013-06-29 11:13:00,
2013-06-29 04:19:00,64.0,48.0,29.82,NE,45,0.0,0.0,56,0.00,,,0.00,VWS V14.01,2013-06-29 11:19:00,
2013-06-29 04:24:00,64.0,47.6,29.82,NNW,338,0.0,0.0,55,0.00,,,0.00,VWS V14.01,2013-06-29 11:24:00,
2013-06-29 04:29:00,63.9,47.4,29.82,North,0,0.0,0.0,55,0.00,,,0.00,VWS V14.01,2013-06-29 11:29:00,
2013-06-29 04:34:00,63.9,47.4,29.82,South,180,0.0,0.0,55,0.00,,,0.00,VWS V14.01,2013-06-29 11:34:00,
2013-06-29 04:39:00,63.7,46.7,29.82,SW,225,3.1,3.1,54,0.00,,,0.00,VWS V14.01,2013-06-29 11:39:00,
2013-06-29 04:44:00,63.7,46.7,29.82,SSW,202,0.0,0.0,54,0.00,,,0.00,VWS V14.01,2013-06-29 11:44:00,
2013-06-29 04:49:00,63.5,46.6,29.82,SSW,202,2.7,2.7,54,0.00,,,0.00,VWS V14.01,2013-06-29 11:49:00,
2013-06-29 04:54:00,63.5,46.6,29.82,SSW,202,0.0,0.0,54,0.00,,,0.00,VWS V14.01,2013-06-29 11:54:00,
2013-06-29 04:59:00,63.5,46.6,29.82,SSW,202,0.0,2.7,54,0.00,,,0.00,VWS V14.01,2013-06-29 11:59:00,
2013-06-29 05:05:00,63.3,46.4,29.82,SSW,202,0.0,0.0,54,0.00,,,0.00,VWS V14.01,2013-06-29 12:05:00,
2013-06-29 05:10:00,63.3,46.4,29.82,SSW,202,0.0,0.0,54,0.00,,,0.00,VWS V14.01,2013-06-29 12:10:00,
2013-06-29 05:15:00,63.3,46.4,29.82,SSW,202,0.0,0.0,54,0.00,,,0.00,VWS V14.01,2013-06-29 12:15:00,
2013-06-29 05:20:00,63.3,46.4,29.82,SSW,202,0.0,0.0,54,0.00,,,0.00,VWS V14.01,2013-06-29 12:20:00,
2013-06-29 05:26:00,63.7,46.2,29.82,SSW,202,3.1,3.1,53,0.00,,,0.00,VWS V14.01,2013-06-29 12:26:00,
2013-06-29 05:31:00,63.7,45.8,29.82,SW,225,0.0,0.0,52,0.00,,,0.00,VWS V14.01,2013-06-29 12:31:00,
2013-06-29 05:36:00,63.9,45.9,29.82,SSW,202,0.0,0.0,52,0.00,,,0.00,VWS V14.01,2013-06-29 12:36:00,
2013-06-29 05:41:00,63.9,45.4,29.82,NW,315,0.0,0.0,51,0.00,,,0.00,VWS V14.01,2013-06-29 12:41:00,
2013-06-29 05:46:00,63.9,45.4,29.82,SSW,202,0.0,0.0,51,0.00,,,0.00,VWS V14.01,2013-06-29 12:46:00,
2013-06-29 05:51:00,63.9,45.4,29.82,SW,225,0.0,0.0,51,0.00,,,0.00,VWS V14.01,2013-06-29 12:51:00,
2013-06-29 05:56:00,63.7,45.8,29.82,SSW,202,0.0,0.0,52,0.00,,,0.00,VWS V14.01,2013-06-29 12:56:00,
2013-06-29 06:01:00,63.7,45.8,29.82,SW,225,0.0,0.0,52,0.00,,,0.00,VWS V14.01,2013-06-29 13:01:00,
2013-06-29 06:07:00,63.7,46.7,29.82,NNW,338,0.0,0.0,54,0.00,,,0.00,VWS V14.01,2013-06-29 13:07:00,
2013-06-29 06:12:00,63.3,47.4,29.82,NNW,338,0.0,0.0,56,0.00,,,0.00,VWS V14.01,2013-06-29 13:12:00,
2013-06-29 06:17:00,63.1,47.7,29.82,NNW,338,0.0,0.0,57,0.00,,,0.00,VWS V14.01,2013-06-29 13:17:00,
2013-06-29 06:22:00,63.1,48.1,29.82,NNE,22,0.0,0.0,58,0.00,,,0.00,VWS V14.01,2013-06-29 13:22:00,
2013-06-29 06:27:00,63.0,48.4,29.82,NNE,22,0.0,0.0,59,0.00,,,0.00,VWS V14.01,2013-06-29 13:27:00,
2013-06-29 06:32:00,63.0,48.4,29.82,NNE,22,0.0,0.0,59,0.00,,,0.00,VWS V14.01,2013-06-29 13:32:00,
2013-06-29 06:37:00,63.1,48.6,29.82,ESE,112,0.0,0.0,59,0.00,,,0.00,VWS V14.01,2013-06-29 13:37:00,
2013-06-29 06:42:00,63.3,48.8,29.82,ESE,112,0.0,0.0,59,0.00,,,0.00,VWS V14.01,2013-06-29 13:42:00,
2013-06-29 06:47:00,63.3,48.8,29.82,South,180,0.0,0.0,59,0.00,,,0.00,VWS V14.01,2013-06-29 13:47:00,
2013-06-29 06:53:00,63.5,48.5,29.82,South,180,0.0,0.0,58,0.00,,,0.00,VWS V14.01,2013-06-29 13:53:00,
2013-06-29 06:58:00,63.5,48.5,29.82,SSW,202,0.0,0.0,58,0.00,,,0.00,VWS V14.01,2013-06-29 13:58:00,
2013-06-29 07:03:00,63.9,47.9,29.82,SSE,158,0.0,0.0,56,0.00,,,0.00,VWS V14.01,2013-06-29 14:03:00,
2013-06-29 07:08:00,64.2,47.7,29.82,SSE,158,0.0,0.0,55,0.00,,,0.00,VWS V14.01,2013-06-29 14:08:00,
2013-06-29 07:13:00,64.4,47.4,29.82,NE,45,0.0,0.0,54,0.00,,,0.00,VWS V14.01,2013-06-29 14:13:00,
2013-06-29 07:18:00,64.4,47.9,29.82,NE,45,0.0,0.0,55,0.00,,,0.00,VWS V14.01,2013-06-29 14:18:00,
2013-06-29 07:23:00,64.6,47.6,29.82,NE,45,0.0,0.0,54,0.00,,,0.00,VWS V14.01,2013-06-29 14:23:00,
2013-06-29 07:29:00,64.6,48.1,29.82,NE,45,0.0,0.0,55,0.00,,,0.00,VWS V14.01,2013-06-29 14:29:00,
2013-06-29 07:34:00,64.6,48.1,29.82,NE,45,0.0,0.0,55,0.00,,,0.00,VWS V14.01,2013-06-29 14:34:00,
2013-06-29 07:39:00,64.8,48.2,29.82,NE,45,0.0,0.0,55,0.00,,,0.00,VWS V14.01,2013-06-29 14:39:00,
2013-06-29 07:44:00,65.1,48.1,29.82,NNE,22,0.0,0.0,54,0.00,,,0.00,VWS V14.01,2013-06-29 14:44:00,
2013-06-29 07:49:00,65.1,48.1,29.82,North,0,0.0,0.0,54,0.00,,,0.00,VWS V14.01,2013-06-29 14:49:00,
2013-06-29 07:54:00,65.1,47.6,29.82,SSW,202,2.7,3.6,53,0.00,,,0.00,VWS V14.01,2013-06-29 14:54:00,
2013-06-29 07:59:00,65.1,47.1,29.82,SSW,202,0.0,0.0,52,0.00,,,0.00,VWS V14.01,2013-06-29 14:59:00,
2013-06-29 08:04:00,65.3,46.7,29.82,SSW,202,0.0,0.0,51,0.00,,,0.00,VWS V14.01,2013-06-29 15:04:00,
2013-06-29 08:10:00,65.5,46.9,29.82,South,180,0.0,0.0,51,0.00,,,0.00,VWS V14.01,2013-06-29 15:10:00,
2013-06-29 08:15:00,65.7,46.5,29.82,WSW,248,0.0,0.0,50,0.00,,,0.00,VWS V14.01,2013-06-29 15:15:00,
2013-06-29 08:20:00,65.8,46.7,29.82,WSW,248,0.0,3.6,50,0.00,,,0.00,VWS V14.01,2013-06-29 15:20:00,
2013-06-29 08:25:00,66.0,46.9,29.82,SSW,202,0.0,0.0,50,0.00,,,0.00,VWS V14.01,2013-06-29 15:25:00,
2013-06-29 08:30:00,66.2,47.0,29.82,SSE,158,0.0,0.0,50,0.00,,,0.00,VWS V14.01,2013-06-29 15:30:00,
2013-06-29 08:35:00,66.4,47.7,29.82,NE,45,0.0,0.0,51,0.00,,,0.00,VWS V14.01,2013-06-29 15:35:00,
2013-06-29 08:40:00,66.4,47.7,29.82,NNW,338,0.0,0.0,51,0.00,,,0.00,VWS V14.01,2013-06-29 15:40:00,
2013-06-29 08:46:00,66.7,48.1,29.82,ESE,112,0.0,0.0,51,0.00,,,0.00,VWS V14.01,2013-06-29 15:46:00,
2013-06-29 08:51:00,67.1,47.9,29.82,ESE,112,3.1,3.1,50,0.00,,,0.00,VWS V14.01,2013-06-29 15:51:00,
2013-06-29 08:56:00,67.5,47.7,29.82,ESE,112,0.0,0.0,49,0.00,,,0.00,VWS V14.01,2013-06-29 15:56:00,
2013-06-29 09:01:00,68.0,47.6,29.82,SE,135,0.0,0.0,48,0.00,,,0.00,VWS V14.01,2013-06-29 16:01:00,
2013-06-29 09:06:00,68.4,47.4,29.85,SSW,202,3.1,3.6,47,0.00,,,0.00,VWS V14.01,2013-06-29 16:06:00,
2013-06-29 09:11:00,68.5,46.4,29.85,SSW,202,3.6,5.4,45,0.00,,,0.00,VWS V14.01,2013-06-29 16:11:00,
2013-06-29 09:17:00,68.7,46.5,29.85,WNW,292,3.1,3.1,45,0.00,,,0.00,VWS V14.01,2013-06-29 16:17:00,
2013-06-29 09:22:00,69.1,46.9,29.82,SSW,202,3.1,3.1,45,0.00,,,0.00,VWS V14.01,2013-06-29 16:22:00,
2013-06-29 09:27:00,70.0,47.1,29.82,SSW,202,0.0,0.0,44,0.00,,,0.00,VWS V14.01,2013-06-29 16:27:00,
2013-06-29 09:32:00,71.4,47.8,29.82,SSW,202,2.2,3.1,43,0.00,,,0.00,VWS V14.01,2013-06-29 16:32:00,
2013-06-29 09:37:00,73.0,47.3,29.82,South,180,2.7,3.1,40,0.00,,,0.00,VWS V14.01,2013-06-29 16:37:00,
2013-06-29 09:42:00,74.3,47.1,29.82,SSW,202,4.0,4.0,38,0.00,,,0.00,VWS V14.01,2013-06-29 16:42:00,
2013-06-29 09:47:00,75.4,46.6,29.82,SSW,202,3.6,4.0,36,0.00,,,0.00,VWS V14.01,2013-06-29 16:47:00,
2013-06-29 09:53:00,76.5,47.5,29.82,NNE,22,0.0,0.0,36,0.00,,,0.00,VWS V14.01,2013-06-29 16:53:00,
2013-06-29 09:58:00,76.6,47.0,29.82,NNE,22,0.0,2.2,35,0.00,,,0.00,VWS V14.01,2013-06-29 16:58:00,
2013-06-29 10:03:00,77.0,47.3,29.82,NNE,22,0.0,0.0,35,0.00,,,0.00,VWS V14.01,2013-06-29 17:03:00,
2013-06-29 10:08:00,77.5,47.8,29.82,NNE,22,0.0,0.0,35,0.00,,,0.00,VWS V14.01,2013-06-29 17:08:00,
2013-06-29 10:13:00,77.5,47.8,29.82,North,0,0.0,0.0,35,0.00,,,0.00,VWS V14.01,2013-06-29 17:13:00,
2013-06-29 10:18:00,77.5,47.8,29.82,North,0,0.0,0.0,35,0.00,,,0.00,VWS V14.01,2013-06-29 17:18:00,
2013-06-29 10:23:00,77.5,47.8,29.85,North,0,0.0,0.0,35,0.00,,,0.00,VWS V14.01,2013-06-29 17:23:00,
2013-06-29 10:28:00,77.5,47.8,29.85,North,0,0.0,0.0,35,0.00,,,0.00,VWS V14.01,2013-06-29 17:28:00,
2013-06-29 10:33:00,77.5,47.8,29.85,North,0,0.0,0.0,35,0.00,,,0.00,VWS V14.01,2013-06-29 17:33:00,
2013-06-29 10:39:00,77.5,47.8,29.85,North,0,0.0,0.0,35,0.00,,,0.00,VWS V14.01,2013-06-29 17:39:00,
2013-06-29 10:44:00,77.5,47.8,29.85,North,0,0.0,0.0,35,0.00,,,0.00,VWS V14.01,2013-06-29 17:44:00,
2013-06-29 10:49:00,77.5,47.8,29.85,North,0,0.0,0.0,35,0.00,,,0.00,VWS V14.01,2013-06-29 17:49:00,
2013-06-29 10:54:00,77.5,47.8,29.85,North,0,0.0,0.0,35,0.00,,,0.00,VWS V14.01,2013-06-29 17:54:00,
2013-06-29 10:59:00,77.5,47.8,29.85,North,0,0.0,0.0,35,0.00,,,0.00,VWS V14.01,2013-06-29 17:59:00,
2013-06-29 11:04:00,77.5,47.8,29.85,North,0,0.0,0.0,35,0.00,,,0.00,VWS V14.01,2013-06-29 18:04:00,
2013-06-29 11:10:00,77.5,47.8,29.85,North,0,0.0,0.0,35,0.00,,,0.00,VWS V14.01,2013-06-29 18:10:00,
2013-06-29 11:15:00,77.5,47.8,29.85,North,0,0.0,0.0,35,0.00,,,0.00,VWS V14.01,2013-06-29 18:15:00,
2013-06-29 11:20:00,77.5,47.8,29.85,North,0,0.0,0.0,35,0.00,,,0.00,VWS V14.01,2013-06-29 18:20:00,
2013-06-29 11:25:00,77.5,47.8,29.85,North,0,0.0,0.0,35,0.00,,,0.00,VWS V14.01,2013-06-29 18:25:00,
2013-06-29 11:30:00,77.5,47.8,29.85,North,0,0.0,0.0,35,0.00,,,0.00,VWS V14.01,2013-06-29 18:30:00,
2013-06-29 11:35:00,77.5,47.8,29.85,North,0,0.0,0.0,35,0.00,,,0.00,VWS V14.01,2013-06-29 18:35:00,
2013-06-29 11:40:00,77.5,47.8,29.85,North,0,0.0,0.0,35,0.00,,,0.00,VWS V14.01,2013-06-29 18:40:00,
2013-06-29 11:45:00,77.5,47.8,29.85,North,0,0.0,0.0,35,0.00,,,0.00,VWS V14.01,2013-06-29 18:45:00,
2013-06-29 11:50:00,77.5,47.8,29.85,North,0,0.0,0.0,35,0.00,,,0.00,VWS V14.01,2013-06-29 18:50:00,
2013-06-29 11:56:00,77.5,47.8,29.85,North,0,0.0,0.0,35,0.00,,,0.00,VWS V14.01,2013-06-29 18:56:00,
2013-06-29 12:01:00,77.5,47.8,29.85,North,0,0.0,0.0,35,0.00,,,0.00,VWS V14.01,2013-06-29 19:01:00,
2013-06-29 12:06:00,77.5,47.8,29.82,North,0,0.0,0.0,35,0.00,,,0.00,VWS V14.01,2013-06-29 19:06:00,
2013-06-29 12:11:00,77.5,47.8,29.82,North,0,0.0,0.0,35,0.00,,,0.00,VWS V14.01,2013-06-29 19:11:00,
2013-06-29 12:16:00,77.5,47.8,29.82,North,0,0.0,0.0,35,0.00,,,0.00,VWS V14.01,2013-06-29 19:16:00,
2013-06-29 12:21:00,77.5,47.8,29.82,North,0,0.0,0.0,35,0.00,,,0.00,VWS V14.01,2013-06-29 19:21:00,
2013-06-29 12:27:00,77.5,47.8,29.82,North,0,0.0,0.0,35,0.00,,,0.00,VWS V14.01,2013-06-29 19:27:00,
2013-06-29 12:32:00,77.5,47.8,29.82,North,0,0.0,0.0,35,0.00,,,0.00,VWS V14.01,2013-06-29 19:32:00,
2013-06-29 12:37:00,77.5,47.8,29.82,North,0,0.0,0.0,35,0.00,,,0.00,VWS V14.01,2013-06-29 19:37:00,
2013-06-29 12:42:00,77.5,47.8,29.82,North,0,0.0,0.0,35,0.00,,,0.00,VWS V14.01,2013-06-29 19:42:00,
2013-06-29 12:47:00,77.5,47.8,29.82,North,0,0.0,0.0,35,0.00,,,0.00,VWS V14.01,2013-06-29 19:47:00,
2013-06-29 12:52:00,77.5,47.8,29.82,North,0,0.0,0.0,35,0.00,,,0.00,VWS V14.01,2013-06-29 19:52:00,
2013-06-29 12:58:00,77.5,47.8,29.82,North,0,0.0,0.0,35,0.00,,,0.00,VWS V14.01,2013-06-29 19:58:00,
2013-06-29 13:03:00,77.5,47.8,29.82,North,0,0.0,0.0,35,0.00,,,0.00,VWS V14.01,2013-06-29 20:03:00,
2013-06-29 13:08:00,77.5,47.8,29.82,North,0,0.0,0.0,35,0.00,,,0.00,VWS V14.01,2013-06-29 20:08:00,
2013-06-29 13:13:00,77.5,47.8,29.82,North,0,0.0,0.0,35,0.00,,,0.00,VWS V14.01,2013-06-29 20:13:00,
2013-06-29 13:18:00,77.5,47.8,29.82,North,0,0.0,0.0,35,0.00,,,0.00,VWS V14.01,2013-06-29 20:18:00,
2013-06-29 13:24:00,77.5,47.8,29.82,North,0,0.0,0.0,35,0.00,,,0.00,VWS V14.01,2013-06-29 20:24:00,
2013-06-29 13:29:00,77.5,47.8,29.82,North,0,0.0,0.0,35,0.00,,,0.00,VWS V14.01,2013-06-29 20:29:00,
2013-06-29 13:34:00,77.5,47.8,29.82,North,0,0.0,0.0,35,0.00,,,0.00,VWS V14.01,2013-06-29 20:34:00,
2013-06-29 13:39:00,77.5,47.8,29.82,North,0,0.0,0.0,35,0.00,,,0.00,VWS V14.01,2013-06-29 20:39:00,
2013-06-29 13:44:00,77.5,47.8,29.82,North,0,0.0,0.0,35,0.00,,,0.00,VWS V14.01,2013-06-29 20:44:00,
2013-06-29 13:49:00,77.5,47.8,29.82,North,0,0.0,0.0,35,0.00,,,0.00,VWS V14.01,2013-06-29 20:49:00,
2013-06-29 13:54:00,77.5,47.8,29.82,North,0,0.0,0.0,35,0.00,,,0.00,VWS V14.01,2013-06-29 20:54:00,
2013-06-29 13:59:00,77.5,47.8,29.82,North,0,0.0,0.0,35,0.00,,,0.00,VWS V14.01,2013-06-29 20:59:00,
2013-06-29 14:04:00,77.5,47.8,29.82,North,0,0.0,0.0,35,0.00,,,0.00,VWS V14.01,2013-06-29 21:04:00,
2013-06-29 14:09:00,77.5,47.8,29.82,North,0,0.0,0.0,35,0.00,,,0.00,VWS V14.01,2013-06-29 21:09:00,
2013-06-29 14:14:00,77.5,47.8,29.82,North,0,0.0,0.0,35,0.00,,,0.00,VWS V14.01,2013-06-29 21:14:00,
2013-06-29 14:20:00,77.5,47.8,29.82,North,0,0.0,0.0,35,0.00,,,0.00,VWS V14.01,2013-06-29 21:20:00,
2013-06-29 14:25:00,77.5,47.8,29.82,North,0,0.0,0.0,35,0.00,,,0.00,VWS V14.01,2013-06-29 21:25:00,
2013-06-29 14:30:00,77.5,47.8,29.82,North,0,0.0,0.0,35,0.00,,,0.00,VWS V14.01,2013-06-29 21:30:00,
2013-06-29 14:36:00,77.5,47.8,29.82,North,0,0.0,0.0,35,0.00,,,0.00,VWS V14.01,2013-06-29 21:36:00,
2013-06-29 14:41:00,77.5,47.8,29.79,North,0,0.0,0.0,35,0.00,,,0.00,VWS V14.01,2013-06-29 21:41:00,
2013-06-29 14:46:00,77.5,47.8,29.79,North,0,0.0,0.0,35,0.00,,,0.00,VWS V14.01,2013-06-29 21:46:00,
2013-06-29 14:51:00,77.5,47.8,29.79,North,0,0.0,0.0,35,0.00,,,0.00,VWS V14.01,2013-06-29 21:51:00,
2013-06-29 14:56:00,77.5,47.8,29.79,North,0,0.0,0.0,35,0.00,,,0.00,VWS V14.01,2013-06-29 21:56:00,
2013-06-29 15:01:00,77.5,47.8,29.79,North,0,0.0,0.0,35,0.00,,,0.00,VWS V14.01,2013-06-29 22:01:00,
2013-06-29 15:06:00,77.5,47.8,29.79,North,0,0.0,0.0,35,0.00,,,0.00,VWS V14.01,2013-06-29 22:06:00,
2013-06-29 15:11:00,77.5,47.8,29.79,North,0,0.0,0.0,35,0.00,,,0.00,VWS V14.01,2013-06-29 22:11:00,
2013-06-29 15:16:00,77.5,47.8,29.79,North,0,0.0,0.0,35,0.00,,,0.00,VWS V14.01,2013-06-29 22:16:00,
2013-06-29 15:21:00,77.5,47.8,29.79,North,0,0.0,0.0,35,0.00,,,0.00,VWS V14.01,2013-06-29 22:21:00,
2013-06-29 15:27:00,77.5,47.8,29.79,North,0,0.0,0.0,35,0.00,,,0.00,VWS V14.01,2013-06-29 22:27:00,
2013-06-29 15:32:00,77.5,47.8,29.79,North,0,0.0,0.0,35,0.00,,,0.00,VWS V14.01,2013-06-29 22:32:00,
2013-06-29 15:37:00,77.5,47.8,29.79,North,0,0.0,0.0,35,0.00,,,0.00,VWS V14.01,2013-06-29 22:37:00,
2013-06-29 15:42:00,77.5,47.8,29.79,North,0,0.0,0.0,35,0.00,,,0.00,VWS V14.01,2013-06-29 22:42:00,
2013-06-29 15:47:00,77.5,47.8,29.79,North,0,0.0,0.0,35,0.00,,,0.00,VWS V14.01,2013-06-29 22:47:00,
2013-06-29 15:52:00,77.5,47.8,29.79,North,0,0.0,0.0,35,0.00,,,0.00,VWS V14.01,2013-06-29 22:52:00,
2013-06-29 15:58:00,77.5,47.8,29.79,North,0,0.0,0.0,35,0.00,,,0.00,VWS V14.01,2013-06-29 22:58:00,
2013-06-29 16:03:00,77.5,47.8,29.79,North,0,0.0,0.0,35,0.00,,,0.00,VWS V14.01,2013-06-29 23:03:00,
2013-06-29 16:08:00,77.5,47.8,29.79,North,0,0.0,0.0,35,0.00,,,0.00,VWS V14.01,2013-06-29 23:08:00,
2013-06-29 16:13:00,77.5,47.8,29.79,North,0,0.0,0.0,35,0.00,,,0.00,VWS V14.01,2013-06-29 23:13:00,
2013-06-29 16:18:00,77.5,47.8,29.79,North,0,0.0,0.0,35,0.00,,,0.00,VWS V14.01,2013-06-29 23:18:00,
2013-06-29 16:23:00,77.5,47.8,29.79,North,0,0.0,0.0,35,0.00,,,0.00,VWS V14.01,2013-06-29 23:23:00,
2013-06-29 16:29:00,77.5,47.8,29.79,North,0,0.0,0.0,35,0.00,,,0.00,VWS V14.01,2013-06-29 23:29:00,
2013-06-29 16:34:00,77.5,47.8,29.79,North,0,0.0,0.0,35,0.00,,,0.00,VWS V14.01,2013-06-29 23:34:00,
2013-06-29 16:39:00,77.5,47.8,29.79,North,0,0.0,0.0,35,0.00,,,0.00,VWS V14.01,2013-06-29 23:39:00,
2013-06-29 16:44:00,77.5,47.8,29.79,North,0,0.0,0.0,35,0.00,,,0.00,VWS V14.01,2013-06-29 23:44:00,
2013-06-29 16:49:00,77.5,47.8,29.79,North,0,0.0,0.0,35,0.00,,,0.00,VWS V14.01,2013-06-29 23:49:00,
2013-06-29 16:54:00,77.5,47.8,29.76,North,0,0.0,0.0,35,0.00,,,0.00,VWS V14.01,2013-06-29 23:54:00,
2013-06-29 16:59:00,77.5,47.8,29.76,North,0,0.0,0.0,35,0.00,,,0.00,VWS V14.01,2013-06-29 23:59:00,
2013-06-29 17:05:00,77.5,47.8,29.76,North,0,0.0,0.0,35,0.00,,,0.00,VWS V14.01,2013-06-30 00:05:00,
2013-06-29 17:10:00,77.5,47.8,29.79,North,0,0.0,0.0,35,0.00,,,0.00,VWS V14.01,2013-06-30 00:10:00,
2013-06-29 17:15:00,77.5,47.8,29.79,North,0,0.0,0.0,35,0.00,,,0.00,VWS V14.01,2013-06-30 00:15:00,
2013-06-29 17:20:00,77.5,47.8,29.79,North,0,0.0,0.0,35,0.00,,,0.00,VWS V14.01,2013-06-30 00:20:00,
2013-06-29 17:25:00,77.5,47.8,29.76,North,0,0.0,0.0,35,0.00,,,0.00,VWS V14.01,2013-06-30 00:25:00,
2013-06-29 17:30:00,77.5,47.8,29.76,North,0,0.0,0.0,35,0.00,,,0.00,VWS V14.01,2013-06-30 00:30:00,
2013-06-29 17:35:00,77.5,47.8,29.76,North,0,0.0,0.0,35,0.00,,,0.00,VWS V14.01,2013-06-30 00:35:00,
2013-06-29 17:40:00,77.5,47.8,29.76,North,0,0.0,0.0,35,0.00,,,0.00,VWS V14.01,2013-06-30 00:40:00,
2013-06-29 17:46:00,77.5,47.8,29.76,North,0,0.0,0.0,35,0.00,,,0.00,VWS V14.01,2013-06-30 00:46:00,
2013-06-29 17:51:00,77.5,47.8,29.76,North,0,0.0,0.0,35,0.00,,,0.00,VWS V14.01,2013-06-30 00:51:00,
2013-06-29 17:56:00,77.5,47.8,29.76,North,0,0.0,0.0,35,0.00,,,0.00,VWS V14.01,2013-06-30 00:56:00,
2013-06-29 18:01:00,77.5,47.8,29.76,North,0,0.0,0.0,35,0.00,,,0.00,VWS V14.01,2013-06-30 01:01:00,
2013-06-29 18:06:00,77.5,47.8,29.74,North,0,0.0,0.0,35,0.00,,,0.00,VWS V14.01,2013-06-30 01:06:00,
2013-06-29 18:11:00,77.5,47.8,29.74,North,0,0.0,0.0,35,0.00,,,0.00,VWS V14.01,2013-06-30 01:11:00,
2013-06-29 18:17:00,77.5,47.8,29.74,North,0,0.0,0.0,35,0.00,,,0.00,VWS V14.01,2013-06-30 01:17:00,
2013-06-29 18:22:00,77.5,47.8,29.76,North,0,0.0,0.0,35,0.00,,,0.00,VWS V14.01,2013-06-30 01:22:00,
2013-06-29 18:27:00,77.5,47.8,29.76,North,0,0.0,0.0,35,0.00,,,0.00,VWS V14.01,2013-06-30 01:27:00,
2013-06-29 18:32:00,77.5,47.8,29.76,North,0,0.0,0.0,35,0.00,,,0.00,VWS V14.01,2013-06-30 01:32:00,
2013-06-29 18:37:00,77.5,47.8,29.74,North,0,0.0,0.0,35,0.00,,,0.00,VWS V14.01,2013-06-30 01:37:00,
2013-06-29 18:42:00,77.5,47.8,29.74,North,0,0.0,0.0,35,0.00,,,0.00,VWS V14.01,2013-06-30 01:42:00,
2013-06-29 18:47:00,77.5,47.8,29.74,North,0,0.0,0.0,35,0.00,,,0.00,VWS V14.01,2013-06-30 01:47:00,
2013-06-29 18:52:00,77.5,47.8,29.76,North,0,0.0,0.0,35,0.00,,,0.00,VWS V14.01,2013-06-30 01:52:00,
2013-06-29 18:58:00,77.5,47.8,29.76,North,0,0.0,0.0,35,0.00,,,0.00,VWS V14.01,2013-06-30 01:58:00,
2013-06-29 19:03:00,77.5,47.8,29.76,North,0,0.0,0.0,35,0.00,,,0.00,VWS V14.01,2013-06-30 02:03:00,
2013-06-29 19:08:00,77.5,47.8,29.74,North,0,0.0,0.0,35,0.00,,,0.00,VWS V14.01,2013-06-30 02:08:00,
2013-06-29 19:13:00,77.5,47.8,29.74,North,0,0.0,0.0,35,0.00,,,0.00,VWS V14.01,2013-06-30 02:13:00,
2013-06-29 19:18:00,77.5,47.8,29.74,North,0,0.0,0.0,35,0.00,,,0.00,VWS V14.01,2013-06-30 02:18:00,
2013-06-29 19:23:00,77.5,47.8,29.74,North,0,0.0,0.0,35,0.00,,,0.00,VWS V14.01,2013-06-30 02:23:00,
2013-06-29 19:28:00,77.5,47.8,29.74,North,0,0.0,0.0,35,0.00,,,0.00,VWS V14.01,2013-06-30 02:28:00,
2013-06-29 19:33:00,77.5,47.8,29.74,North,0,0.0,0.0,35,0.00,,,0.00,VWS V14.01,2013-06-30 02:33:00,
2013-06-29 19:39:00,67.8,46.9,29.74,South,180,10.1,10.1,47,0.00,,,0.00,VWS V14.01,2013-06-30 02:39:00,
2013-06-29 19:44:00,67.8,46.9,29.74,ESE,112,3.6,3.6,47,0.00,,,0.00,VWS V14.01,2013-06-30 02:44:00,
2013-06-29 19:49:00,67.5,46.5,29.74,South,180,8.1,8.1,47,0.00,,,0.00,VWS V14.01,2013-06-30 02:49:00,
2013-06-29 19:54:00,67.3,46.9,29.74,WNW,292,3.6,4.9,48,0.00,,,0.00,VWS V14.01,2013-06-30 02:54:00,
2013-06-29 19:59:00,67.1,46.8,29.74,SSW,202,2.2,4.0,48,0.00,,,0.00,VWS V14.01,2013-06-30 02:59:00,
2013-06-29 20:04:00,67.1,46.8,29.74,WNW,292,0.0,2.7,48,0.00,,,0.00,VWS V14.01,2013-06-30 03:04:00,
2013-06-29 20:09:00,66.9,46.6,29.74,ESE,112,4.0,4.0,48,0.00,,,0.00,VWS V14.01,2013-06-30 03:09:00,
2013-06-29 20:15:00,66.7,46.5,29.74,SW,225,6.3,6.3,48,0.00,,,0.00,VWS V14.01,2013-06-30 03:15:00,
2013-06-29 20:20:00,66.6,46.3,29.74,South,180,7.2,7.2,48,0.00,,,0.00,VWS V14.01,2013-06-30 03:20:00,
2013-06-29 20:25:00,66.4,46.7,29.74,NNE,22,2.7,4.9,49,0.00,,,0.00,VWS V14.01,2013-06-30 03:25:00,
2013-06-29 20:30:00,66.2,46.5,29.74,SSW,202,6.3,8.7,49,0.00,,,0.00,VWS V14.01,2013-06-30 03:30:00,
2013-06-29 20:35:00,65.8,46.2,29.74,SSW,202,2.7,4.0,49,0.00,,,0.00,VWS V14.01,2013-06-30 03:35:00,
2013-06-29 20:40:00,65.8,46.7,29.76,South,180,2.7,2.7,50,0.00,,,0.00,VWS V14.01,2013-06-30 03:40:00,
2013-06-29 20:45:00,65.8,46.7,29.76,NW,315,2.7,6.3,50,0.00,,,0.00,VWS V14.01,2013-06-30 03:45:00,
2013-06-29 20:50:00,65.5,46.4,29.76,SSW,202,3.1,4.0,50,0.00,,,0.00,VWS V14.01,2013-06-30 03:50:00,
2013-06-29 20:56:00,65.3,46.7,29.76,SSW,202,3.6,4.0,51,0.00,,,0.00,VWS V14.01,2013-06-30 03:56:00,
2013-06-29 21:01:00,65.3,46.7,29.76,SSW,202,3.1,5.4,51,0.00,,,0.00,VWS V14.01,2013-06-30 04:01:00,
2013-06-29 21:02:00,65.3,46.7,29.76,ESE,112,2.7,3.1,51,0.00,,,0.00,VWS V14.01,2013-06-30 04:02:00,
2013-06-29 21:05:00,65.3,46.7,29.76,SSE,158,2.7,2.7,51,0.00,,,0.00,VWS V14.01,2013-06-30 04:05:00,
2013-06-29 21:10:00,65.5,46.4,29.76,South,180,9.6,9.6,50,0.00,,,0.00,VWS V14.01,2013-06-30 04:10:00,
2013-06-29 21:15:00,65.5,46.4,29.76,South,180,0.0,2.2,50,0.00,,,0.00,VWS V14.01,2013-06-30 04:15:00,
2013-06-29 21:20:00,65.3,46.2,29.76,SSW,202,3.6,3.6,50,0.00,,,0.00,VWS V14.01,2013-06-30 04:20:00,
2013-06-29 21:25:00,65.1,46.6,29.76,SSW,202,2.7,4.0,51,0.00,,,0.00,VWS V14.01,2013-06-30 04:25:00,
2013-06-29 21:31:00,65.1,46.6,29.76,SSW,202,2.7,3.1,51,0.00,,,0.00,VWS V14.01,2013-06-30 04:31:00,
2013-06-29 21:36:00,65.1,46.6,29.76,SSW,202,3.6,4.9,51,0.00,,,0.00,VWS V14.01,2013-06-30 04:36:00,
2013-06-29 21:41:00,64.9,46.4,29.76,SSW,202,4.9,6.3,51,0.00,,,0.00,VWS V14.01,2013-06-30 04:41:00,
2013-06-29 21:46:00,64.9,46.4,29.76,SW,225,6.7,6.7,51,0.00,,,0.00,VWS V14.01,2013-06-30 04:46:00,
2013-06-29 21:51:00,65.1,46.6,29.76,SSW,202,8.1,8.1,51,0.00,,,0.00,VWS V14.01,2013-06-30 04:51:00,
2013-06-29 21:56:00,65.1,46.6,29.76,SSW,202,2.7,2.7,51,0.00,,,0.00,VWS V14.01,2013-06-30 04:56:00,
2013-06-29 22:01:00,65.1,46.6,29.76,South,180,0.0,3.1,51,0.00,,,0.00,VWS V14.01,2013-06-30 05:01:00,
2013-06-29 22:07:00,65.1,46.6,29.76,SW,225,0.0,2.7,51,0.00,,,0.00,VWS V14.01,2013-06-30 05:07:00,
2013-06-29 22:12:00,65.1,46.6,29.76,SW,225,0.0,2.7,51,0.00,,,0.00,VWS V14.01,2013-06-30 05:12:00,
2013-06-29 22:17:00,64.9,46.4,29.76,SW,225,2.2,2.2,51,0.00,,,0.00,VWS V14.01,2013-06-30 05:17:00,
2013-06-29 22:22:00,64.8,46.2,29.76,SSE,158,2.2,2.7,51,0.00,,,0.00,VWS V14.01,2013-06-30 05:22:00,
2013-06-29 22:28:00,64.8,46.7,29.76,SSW,202,2.7,2.7,52,0.00,,,0.00,VWS V14.01,2013-06-30 05:28:00,
2013-06-29 22:33:00,64.4,46.4,29.76,SW,225,2.7,4.0,52,0.00,,,0.00,VWS V14.01,2013-06-30 05:33:00,
2013-06-29 22:38:00,64.4,46.4,29.76,WSW,248,2.7,3.1,52,0.00,,,0.00,VWS V14.01,2013-06-30 05:38:00,
2013-06-29 22:43:00,64.2,46.8,29.76,SW,225,2.7,2.7,53,0.00,,,0.00,VWS V14.01,2013-06-30 05:43:00,
2013-06-29 22:49:00,64.2,46.8,29.76,SSW,202,3.1,3.1,53,0.00,,,0.00,VWS V14.01,2013-06-30 05:49:00,
2013-06-29 22:54:00,64.2,46.8,29.76,SW,225,2.7,2.7,53,0.00,,,0.00,VWS V14.01,2013-06-30 05:54:00,
2013-06-29 22:59:00,64.0,47.1,29.76,SSW,202,2.2,2.7,54,0.00,,,0.00,VWS V14.01,2013-06-30 05:59:00,
2013-06-29 23:04:00,64.0,47.1,29.76,South,180,2.7,3.6,54,0.00,,,0.00,VWS V14.01,2013-06-30 06:04:00,
2013-06-29 23:09:00,64.2,47.2,29.76,SSW,202,0.0,3.1,54,0.00,,,0.00,VWS V14.01,2013-06-30 06:09:00,
2013-06-29 23:14:00,64.2,47.2,29.76,SSW,202,3.1,3.6,54,0.00,,,0.00,VWS V14.01,2013-06-30 06:14:00,
2013-06-29 23:19:00,64.2,47.2,29.76,SSW,202,2.7,2.7,54,0.00,,,0.00,VWS V14.01,2013-06-30 06:19:00,
2013-06-29 23:24:00,64.4,47.4,29.76,South,180,2.2,2.2,54,0.00,,,0.00,VWS V14.01,2013-06-30 06:24:00,
2013-06-29 23:30:00,64.4,46.9,29.76,WSW,248,2.7,2.7,53,0.00,,,0.00,VWS V14.01,2013-06-30 06:30:00,
2013-06-29 23:35:00,64.4,46.9,29.76,SSW,202,4.0,4.0,53,0.00,,,0.00,VWS V14.01,2013-06-30 06:35:00,
2013-06-29 23:40:00,64.4,46.9,29.76,WSW,248,2.7,3.1,53,0.00,,,0.00,VWS V14.01,2013-06-30 06:40:00,
2013-06-29 23:45:00,64.4,46.9,29.76,SSW,202,2.7,2.7,53,0.00,,,0.00,VWS V14.01,2013-06-30 06:45:00,
2013-06-29 23:50:00,64.2,47.2,29.76,SSW,202,2.2,2.2,54,0.00,,,0.00,VWS V14.01,2013-06-30 06:50:00,
2013-06-29 23:55:00,64.2,47.2,29.76,SSE,158,0.0,0.0,54,0.00,,,0.00,VWS V14.01,2013-06-30 06:55:00,